Veersedijk — PBCX — position and weather

sailwx.info

Track history (hours):
 
Tides and Currents Weather Stations Pressure Air Temp Water Temp Dewpoint Dewpoint Depression Visibility Wind Speed Wind Dir Waves Ship Positions

Veersedijk

Last reported at 2017-Feb-11 08:16 UTC. Time now 2017-Feb-21 19:05 UTC.
Position N 50°31' W 000°07'.
Warning: this ship's position is 10 days out of date.

Length 132 m; draft 5.2 m.

Type: Cargo ship. MMSI: 244268000.

Date/timePositionNaut miles runAvg speedWind from/ knotsBaromVisibWave heightAir tempDewpointWater temp
2017-Feb-11 08:16N 50°31' W 000°07'  
2017-Feb-09 03:13N 49°57' E 000°09'5 8.0
2017-Feb-09 02:33N 49°52' E 000°06'8 7.6
2017-Feb-09 01:33N 49°45' E 000°02'8 7.8
2017-Feb-09 00:33N 49°38' W 000°00'7 7.4
2017-Feb-08 23:33N 49°30' E 000°01'4 4.0
2017-Feb-08 22:32N 49°29' E 000°07'0 0.0
2017-Feb-08 21:32N 49°29' E 000°07'4 4.0
2017-Feb-08 20:33N 49°30' E 000°01'9 9.1
2017-Feb-08 19:33N 49°40' E 000°02'8 8.0
2017-Feb-08 18:33N 49°47' E 000°06'44 0.9
2017-Feb-06 15:05N 50°31' W 000°06'1 2.4
2017-Feb-06 14:28N 50°32' W 000°07'1 0.7
2017-Feb-06 13:29N 50°32' W 000°08'0 0.5
2017-Feb-06 12:31N 50°32' W 000°08'2 0.8
2017-Feb-06 10:27N 50°32' W 000°05'3 2.3
2017-Feb-06 09:07N 50°33' W 000°00'1 0.8
2017-Feb-06 07:29N 50°31' W 000°01'  
2017-Feb-02 21:32N 50°26' E 000°11'3 3.4
2017-Feb-02 20:33N 50°27' E 000°06'6 5.3
2017-Feb-02 19:30N 50°30' W 000°02'2 2.3
2017-Feb-02 18:32N 50°32' W 000°04'1 1.4
2017-Feb-02 17:33N 50°31' W 000°02'2 1.4
2017-Feb-02 16:14N 50°31' W 000°05'1 1.7
2017-Feb-02 15:26N 50°31' W 000°03'1 1.1
2017-Feb-02 14:31N 50°30' W 000°03'3 1.7
2017-Feb-02 12:33N 50°27' W 000°06'4 2.0
2017-Feb-02 10:28N 50°26' W 000°13'2 0.9
2017-Feb-02 08:33N 50°26' W 000°10'0 0.2
2017-Feb-02 07:17N 50°26' W 000°10'1 1.1
2017-Feb-02 06:33N 50°26' W 000°12'2 1.8
2017-Feb-02 05:26N 50°25' W 000°12'3 2.4
2017-Feb-02 04:23N 50°22' W 000°11'8 9.5
2017-Feb-02 03:30N 50°14' W 000°09'10 9.9
2017-Feb-02 02:32N 50°04' W 000°07'10 9.8
2017-Feb-02 01:33N 49°55' W 000°04'1010.1
2017-Feb-02 00:33N 49°45' W 000°03'1010.3
2017-Feb-01 23:33N 49°35' W 000°00'7 7.3
2017-Feb-01 22:32N 49°29' E 000°07'0 0.2
2017-Feb-01 21:33N 49°29' E 000°07'0 0.3
2017-Feb-01 20:30N 49°29' E 000°07'3 2.7
2017-Feb-01 19:33N 49°30' E 000°03'10 9.8
2017-Feb-01 18:33N 49°36' W 000°08'10 9.7
2017-Feb-01 17:33N 49°44' W 000°18'9 9.1
2017-Feb-01 16:31N 49°51' W 000°28'1 1.4
2017-Feb-01 15:29N 49°51' W 000°25'3 3.4
2017-Feb-01 14:33N 49°49' W 000°23'3 1.7
2017-Feb-01 12:30N 49°52' W 000°21'  
Track history (hours):
 
Tides and Currents Weather Stations Pressure Air Temp Water Temp Dewpoint Dewpoint Depression Visibility Wind Speed Wind Dir Waves Ship Positions

Veersedijk

Last reported at 2017-Feb-11 08:16 UTC. Time now 2017-Feb-21 19:05 UTC.
Position N 50°31' W 000°07'.
Warning: this ship's position is 10 days out of date.

Length 132 m; draft 5.2 m.

Type: Cargo ship. MMSI: 244268000.

Date/timePositionNaut miles runAvg speedWind from/ knotsBaromVisibWave heightAir tempDewpointWater temp
2017-Feb-11 08:16N 50°31' W 000°07'  
2017-Feb-09 03:13N 49°57' E 000°09'5 8.0
2017-Feb-09 02:33N 49°52' E 000°06'8 7.6
2017-Feb-09 01:33N 49°45' E 000°02'8 7.8
2017-Feb-09 00:33N 49°38' W 000°00'7 7.4
2017-Feb-08 23:33N 49°30' E 000°01'4 4.0
2017-Feb-08 22:32N 49°29' E 000°07'0 0.0
2017-Feb-08 21:32N 49°29' E 000°07'4 4.0
2017-Feb-08 20:33N 49°30' E 000°01'9 9.1
2017-Feb-08 19:33N 49°40' E 000°02'8 8.0
2017-Feb-08 18:33N 49°47' E 000°06'44 0.9
2017-Feb-06 15:05N 50°31' W 000°06'1 2.4
2017-Feb-06 14:28N 50°32' W 000°07'1 0.7
2017-Feb-06 13:29N 50°32' W 000°08'0 0.5
2017-Feb-06 12:31N 50°32' W 000°08'2 0.8
2017-Feb-06 10:27N 50°32' W 000°05'3 2.3
2017-Feb-06 09:07N 50°33' W 000°00'1 0.8
2017-Feb-06 07:29N 50°31' W 000°01'  
2017-Feb-02 21:32N 50°26' E 000°11'3 3.4
2017-Feb-02 20:33N 50°27' E 000°06'6 5.3
2017-Feb-02 19:30N 50°30' W 000°02'2 2.3
2017-Feb-02 18:32N 50°32' W 000°04'1 1.4
2017-Feb-02 17:33N 50°31' W 000°02'2 1.4
2017-Feb-02 16:14N 50°31' W 000°05'1 1.7
2017-Feb-02 15:26N 50°31' W 000°03'1 1.1
2017-Feb-02 14:31N 50°30' W 000°03'3 1.7
2017-Feb-02 12:33N 50°27' W 000°06'4 2.0
2017-Feb-02 10:28N 50°26' W 000°13'2 0.9
2017-Feb-02 08:33N 50°26' W 000°10'0 0.2
2017-Feb-02 07:17N 50°26' W 000°10'1 1.1
2017-Feb-02 06:33N 50°26' W 000°12'2 1.8
2017-Feb-02 05:26N 50°25' W 000°12'3 2.4
2017-Feb-02 04:23N 50°22' W 000°11'8 9.5
2017-Feb-02 03:30N 50°14' W 000°09'10 9.9
2017-Feb-02 02:32N 50°04' W 000°07'10 9.8
2017-Feb-02 01:33N 49°55' W 000°04'1010.1
2017-Feb-02 00:33N 49°45' W 000°03'1010.3
2017-Feb-01 23:33N 49°35' W 000°00'7 7.3
2017-Feb-01 22:32N 49°29' E 000°07'0 0.2
2017-Feb-01 21:33N 49°29' E 000°07'0 0.3
2017-Feb-01 20:30N 49°29' E 000°07'3 2.7
2017-Feb-01 19:33N 49°30' E 000°03'10 9.8
2017-Feb-01 18:33N 49°36' W 000°08'10 9.7
2017-Feb-01 17:33N 49°44' W 000°18'9 9.1
2017-Feb-01 16:31N 49°51' W 000°28'1 1.4
2017-Feb-01 15:29N 49°51' W 000°25'3 3.4
2017-Feb-01 14:33N 49°49' W 000°23'3 1.7
2017-Feb-01 12:30N 49°52' W 000°21'  

Dump ship's entire track history